Austin, TX (78713)

12:57 AM CDT on August 29, 2016 (GMT -0500)
West End | | Change Station

Elev 564 ft 30.28 °N, 97.75 °W | Updated 10 seconds ago

Clear
Clear
77.2 °F
Feels Like 79 °F
N
8.1
Wind Variable Wind from ENE
Gusts 9.8 mph

Today
High -- | Low -- °F
--% Chance of Precip.
Yesterday
High -- | Low -- °F
Precip. -- in
Pressure 29.98 in
Visibility 10.0 miles
Clouds Clear
Heat Index 79 °F
Dew Point 72 °F
Humidity 83%
Rainfall 0.00 in
Snow Depth Not available.
7:06 AM 7:56 PM
Waning Crescent, 10% visible
METAR KATT 290551Z AUTO 04003KT 10SM CLR 24/22 A3002 RMK AO2 SLP151 60016 T02390222 10306 20233 403330228 58005
Pressure 29.98 in
Visibility 10.0 miles
Clouds Clear
Heat Index 79 °F
Dew Point 72 °F
Humidity 83%
Rainfall 0.00 in
Snow Depth Not available.
7:06 AM 7:56 PM
Waning Crescent, 10% visible
METAR KATT 290551Z AUTO 04003KT 10SM CLR 24/22 A3002 RMK AO2 SLP151 60016 T02390222 10306 20233 403330228 58005

10-Day Weather Forecast

Almanac

Astronomy

Aug. 29, 2016 Rise Set
Actual Time
Civil Twilight
Nautical Twilight
Astronomical Twilight
Moon
Length of Visible Light
Length of Day
Tomorrow will be .
, % of the Moon is Illuminated

Today's Extremes

State Highs State Lows

Community

WunderPhotos

Upload Photos

1,935,800 photos uploaded!

WunderBlog® & News

Nearby

Air Quality

  Air Quality AQ Index Pollutant
Not available.

Snow Depth

Station Depth Elevation

Earthquake Activity

City Distance Mag. Time & Date
Minimum magnitude displayed is 2.5.

Coastal Water Temperatures

Place Temperature

Stations

Nearby Weather Stations

Station Location Temp. Windchill Dew Point Humidity Wind Precip. Elev Updated Type
                   

Watches & Warnings

There are currently no watches in effect.